sensor_id;sensor_type;location;lat;lon;timestamp;P1;durP1;ratioP1;P2;durP2;ratioP2
11024;SDS011;22890;51.820;8.682;2023-02-28T00:01:07;0.70;;;0.70;;
11024;SDS011;22890;51.820;8.682;2023-02-28T00:03:34;0.93;;;0.57;;
11024;SDS011;22890;51.820;8.682;2023-02-28T00:06:03;2.87;;;0.80;;
11024;SDS011;22890;51.820;8.682;2023-02-28T00:08:31;0.70;;;0.60;;
11024;SDS011;22890;51.820;8.682;2023-02-28T00:11:02;2.40;;;0.70;;
11024;SDS011;22890;51.820;8.682;2023-02-28T00:13:30;2.70;;;0.60;;
11024;SDS011;22890;51.820;8.682;2023-02-28T00:16:01;1.40;;;1.27;;
11024;SDS011;22890;51.820;8.682;2023-02-28T00:18:30;0.90;;;0.60;;
11024;SDS011;22890;51.820;8.682;2023-02-28T00:20:57;1.23;;;1.03;;
11024;SDS011;22890;51.820;8.682;2023-02-28T00:23:25;0.63;;;0.60;;
11024;SDS011;22890;51.820;8.682;2023-02-28T00:25:52;0.80;;;0.80;;
11024;SDS011;22890;51.820;8.682;2023-02-28T00:28:19;0.90;;;0.70;;
11024;SDS011;22890;51.820;8.682;2023-02-28T00:30:46;1.13;;;0.60;;
11024;SDS011;22890;51.820;8.682;2023-02-28T00:33:13;2.37;;;0.80;;
11024;SDS011;22890;51.820;8.682;2023-02-28T00:35:40;1.27;;;0.70;;
11024;SDS011;22890;51.820;8.682;2023-02-28T00:38:08;2.20;;;0.80;;
11024;SDS011;22890;51.820;8.682;2023-02-28T00:40:35;0.90;;;0.57;;
11024;SDS011;22890;51.820;8.682;2023-02-28T00:43:04;0.93;;;0.90;;
11024;SDS011;22890;51.820;8.682;2023-02-28T00:45:31;0.70;;;0.40;;
11024;SDS011;22890;51.820;8.682;2023-02-28T00:47:58;2.30;;;0.57;;
11024;SDS011;22890;51.820;8.682;2023-02-28T00:50:26;0.90;;;0.77;;
11024;SDS011;22890;51.820;8.682;2023-02-28T00:52:52;3.50;;;0.70;;
11024;SDS011;22890;51.820;8.682;2023-02-28T00:55:19;0.40;;;0.40;;
11024;SDS011;22890;51.820;8.682;2023-02-28T00:57:47;2.40;;;1.03;;
11024;SDS011;22890;51.820;8.682;2023-02-28T01:00:14;0.33;;;0.33;;
11024;SDS011;22890;51.820;8.682;2023-02-28T01:02:41;1.53;;;0.70;;
11024;SDS011;22890;51.820;8.682;2023-02-28T01:05:08;0.83;;;0.40;;
11024;SDS011;22890;51.820;8.682;2023-02-28T01:07:35;1.17;;;0.50;;
11024;SDS011;22890;51.820;8.682;2023-02-28T01:10:02;0.50;;;0.50;;
11024;SDS011;22890;51.820;8.682;2023-02-28T01:12:29;2.30;;;0.60;;
11024;SDS011;22890;51.820;8.682;2023-02-28T01:14:56;0.40;;;0.40;;
11024;SDS011;22890;51.820;8.682;2023-02-28T01:17:24;0.50;;;0.50;;
11024;SDS011;22890;51.820;8.682;2023-02-28T01:19:53;0.87;;;0.87;;
11024;SDS011;22890;51.820;8.682;2023-02-28T01:22:23;0.70;;;0.60;;
11024;SDS011;22890;51.820;8.682;2023-02-28T01:24:51;1.23;;;0.60;;
11024;SDS011;22890;51.820;8.682;2023-02-28T01:27:18;0.47;;;0.47;;
11024;SDS011;22890;51.820;8.682;2023-02-28T01:29:45;0.63;;;0.53;;
11024;SDS011;22890;51.820;8.682;2023-02-28T01:32:12;3.23;;;0.70;;
11024;SDS011;22890;51.820;8.682;2023-02-28T01:34:39;0.40;;;0.40;;
11024;SDS011;22890;51.820;8.682;2023-02-28T01:37:06;0.60;;;0.60;;
11024;SDS011;22890;51.820;8.682;2023-02-28T01:39:33;1.50;;;1.23;;
11024;SDS011;22890;51.820;8.682;2023-02-28T01:42:02;0.50;;;0.43;;
11024;SDS011;22890;51.820;8.682;2023-02-28T01:47:20;2.43;;;1.53;;
11024;SDS011;22890;51.820;8.682;2023-02-28T01:49:48;2.00;;;0.70;;
11024;SDS011;22890;51.820;8.682;2023-02-28T01:52:17;2.97;;;0.50;;
11024;SDS011;22890;51.820;8.682;2023-02-28T01:54:45;0.93;;;0.60;;
11024;SDS011;22890;51.820;8.682;2023-02-28T01:57:18;2.83;;;0.80;;
11024;SDS011;22890;51.820;8.682;2023-02-28T01:59:50;0.77;;;0.50;;
11024;SDS011;22890;51.820;8.682;2023-02-28T02:02:24;1.67;;;0.50;;
11024;SDS011;22890;51.820;8.682;2023-02-28T02:04:54;1.90;;;0.70;;
11024;SDS011;22890;51.820;8.682;2023-02-28T02:07:29;0.50;;;0.50;;
11024;SDS011;22890;51.820;8.682;2023-02-28T02:09:59;0.50;;;0.40;;
11024;SDS011;22890;51.820;8.682;2023-02-28T02:18:06;0.60;;;0.50;;
11024;SDS011;22890;51.820;8.682;2023-02-28T02:21:23;1.33;;;0.50;;
11024;SDS011;22890;51.820;8.682;2023-02-28T02:30:02;0.40;;;0.33;;
11024;SDS011;22890;51.820;8.682;2023-02-28T02:43:44;1.33;;;0.60;;
11024;SDS011;22890;51.820;8.682;2023-02-28T02:46:21;0.80;;;0.50;;
11024;SDS011;22890;51.820;8.682;2023-02-28T02:48:54;0.40;;;0.30;;
11024;SDS011;22890;51.820;8.682;2023-02-28T02:51:23;0.57;;;0.50;;
11024;SDS011;22890;51.820;8.682;2023-02-28T02:53:52;2.07;;;0.60;;
11024;SDS011;22890;51.820;8.682;2023-02-28T02:56:27;1.93;;;0.87;;
11024;SDS011;22890;51.820;8.682;2023-02-28T02:59:01;0.23;;;0.23;;
11024;SDS011;22890;51.820;8.682;2023-02-28T03:01:31;0.50;;;0.50;;
11024;SDS011;22890;51.820;8.682;2023-02-28T03:03:59;0.77;;;0.77;;
11024;SDS011;22890;51.820;8.682;2023-02-28T03:06:29;0.60;;;0.60;;
11024;SDS011;22890;51.820;8.682;2023-02-28T03:08:56;0.60;;;0.60;;
11024;SDS011;22890;51.820;8.682;2023-02-28T03:11:23;1.37;;;0.43;;
11024;SDS011;22890;51.820;8.682;2023-02-28T03:14:11;0.43;;;0.40;;
11024;SDS011;22890;51.820;8.682;2023-02-28T03:27:24;4.03;;;0.77;;
11024;SDS011;22890;51.820;8.682;2023-02-28T03:30:03;0.40;;;0.40;;
11024;SDS011;22890;51.820;8.682;2023-02-28T03:35:37;0.60;;;0.60;;
11024;SDS011;22890;51.820;8.682;2023-02-28T03:38:12;0.83;;;0.50;;
11024;SDS011;22890;51.820;8.682;2023-02-28T03:40:58;0.50;;;0.50;;
11024;SDS011;22890;51.820;8.682;2023-02-28T03:43:33;1.07;;;0.80;;
11024;SDS011;22890;51.820;8.682;2023-02-28T03:46:05;0.97;;;0.97;;
11024;SDS011;22890;51.820;8.682;2023-02-28T03:48:45;1.73;;;0.60;;
11024;SDS011;22890;51.820;8.682;2023-02-28T03:51:42;0.73;;;0.57;;
11024;SDS011;22890;51.820;8.682;2023-02-28T03:54:16;0.80;;;0.67;;
11024;SDS011;22890;51.820;8.682;2023-02-28T03:56:49;1.07;;;0.73;;
11024;SDS011;22890;51.820;8.682;2023-02-28T03:59:25;1.13;;;1.13;;
11024;SDS011;22890;51.820;8.682;2023-02-28T04:02:05;0.50;;;0.50;;
11024;SDS011;22890;51.820;8.682;2023-02-28T04:04:33;10.30;;;1.27;;
11024;SDS011;22890;51.820;8.682;2023-02-28T04:07:02;7.50;;;0.90;;
11024;SDS011;22890;51.820;8.682;2023-02-28T04:09:31;0.77;;;0.60;;
11024;SDS011;22890;51.820;8.682;2023-02-28T04:11:58;6.90;;;1.13;;
11024;SDS011;22890;51.820;8.682;2023-02-28T04:14:25;2.17;;;1.87;;
11024;SDS011;22890;51.820;8.682;2023-02-28T04:16:53;7.03;;;3.10;;
11024;SDS011;22890;51.820;8.682;2023-02-28T04:19:20;3.10;;;1.70;;
11024;SDS011;22890;51.820;8.682;2023-02-28T04:21:48;2.07;;;1.00;;
11024;SDS011;22890;51.820;8.682;2023-02-28T04:24:26;1.20;;;0.67;;
11024;SDS011;22890;51.820;8.682;2023-02-28T04:26:54;1.20;;;0.80;;
11024;SDS011;22890;51.820;8.682;2023-02-28T04:29:30;0.70;;;0.53;;
11024;SDS011;22890;51.820;8.682;2023-02-28T04:31:58;0.57;;;0.57;;
11024;SDS011;22890;51.820;8.682;2023-02-28T04:34:26;1.07;;;0.73;;
11024;SDS011;22890;51.820;8.682;2023-02-28T04:36:55;2.13;;;0.70;;
11024;SDS011;22890;51.820;8.682;2023-02-28T04:39:38;1.43;;;0.60;;
11024;SDS011;22890;51.820;8.682;2023-02-28T04:42:05;0.47;;;0.47;;
11024;SDS011;22890;51.820;8.682;2023-02-28T04:44:32;1.37;;;0.80;;
11024;SDS011;22890;51.820;8.682;2023-02-28T04:46:59;0.50;;;0.40;;
11024;SDS011;22890;51.820;8.682;2023-02-28T04:49:26;0.57;;;0.47;;
11024;SDS011;22890;51.820;8.682;2023-02-28T04:51:53;1.90;;;0.70;;
11024;SDS011;22890;51.820;8.682;2023-02-28T04:54:21;2.20;;;1.67;;
11024;SDS011;22890;51.820;8.682;2023-02-28T04:56:48;0.70;;;0.63;;
11024;SDS011;22890;51.820;8.682;2023-02-28T04:59:16;0.60;;;0.60;;
11024;SDS011;22890;51.820;8.682;2023-02-28T05:01:45;1.00;;;0.90;;
11024;SDS011;22890;51.820;8.682;2023-02-28T05:04:14;1.00;;;0.70;;
11024;SDS011;22890;51.820;8.682;2023-02-28T05:06:41;0.70;;;0.57;;
11024;SDS011;22890;51.820;8.682;2023-02-28T05:09:08;0.60;;;0.60;;
11024;SDS011;22890;51.820;8.682;2023-02-28T05:11:37;0.97;;;0.70;;
11024;SDS011;22890;51.820;8.682;2023-02-28T05:14:06;0.40;;;0.40;;
11024;SDS011;22890;51.820;8.682;2023-02-28T05:16:37;1.10;;;0.90;;
11024;SDS011;22890;51.820;8.682;2023-02-28T05:19:04;0.53;;;0.50;;
11024;SDS011;22890;51.820;8.682;2023-02-28T05:21:32;0.60;;;0.60;;
11024;SDS011;22890;51.820;8.682;2023-02-28T05:24:02;0.80;;;0.53;;
11024;SDS011;22890;51.820;8.682;2023-02-28T05:26:33;1.23;;;0.90;;
11024;SDS011;22890;51.820;8.682;2023-02-28T05:29:05;0.57;;;0.57;;
11024;SDS011;22890;51.820;8.682;2023-02-28T05:31:32;1.00;;;0.70;;
11024;SDS011;22890;51.820;8.682;2023-02-28T05:34:00;2.90;;;0.93;;
11024;SDS011;22890;51.820;8.682;2023-02-28T05:36:27;0.50;;;0.50;;
11024;SDS011;22890;51.820;8.682;2023-02-28T05:38:54;0.87;;;0.63;;
11024;SDS011;22890;51.820;8.682;2023-02-28T05:41:21;1.80;;;0.90;;
11024;SDS011;22890;51.820;8.682;2023-02-28T05:43:48;1.07;;;0.60;;
11024;SDS011;22890;51.820;8.682;2023-02-28T05:46:15;0.90;;;0.80;;
11024;SDS011;22890;51.820;8.682;2023-02-28T05:48:42;6.70;;;1.10;;
11024;SDS011;22890;51.820;8.682;2023-02-28T05:51:13;1.17;;;0.70;;
11024;SDS011;22890;51.820;8.682;2023-02-28T05:53:40;0.53;;;0.53;;
11024;SDS011;22890;51.820;8.682;2023-02-28T05:56:06;0.60;;;0.60;;
11024;SDS011;22890;51.820;8.682;2023-02-28T05:58:34;0.70;;;0.60;;
11024;SDS011;22890;51.820;8.682;2023-02-28T06:01:18;1.80;;;0.83;;
11024;SDS011;22890;51.820;8.682;2023-02-28T06:03:46;0.90;;;0.73;;
11024;SDS011;22890;51.820;8.682;2023-02-28T06:06:13;0.97;;;0.60;;
11024;SDS011;22890;51.820;8.682;2023-02-28T06:08:40;0.60;;;0.57;;
11024;SDS011;22890;51.820;8.682;2023-02-28T06:11:09;0.70;;;0.67;;
11024;SDS011;22890;51.820;8.682;2023-02-28T06:13:36;0.50;;;0.50;;
11024;SDS011;22890;51.820;8.682;2023-02-28T06:16:03;2.60;;;0.70;;
11024;SDS011;22890;51.820;8.682;2023-02-28T06:18:31;0.40;;;0.40;;
11024;SDS011;22890;51.820;8.682;2023-02-28T06:20:58;1.93;;;0.53;;
11024;SDS011;22890;51.820;8.682;2023-02-28T06:23:25;2.23;;;0.50;;
11024;SDS011;22890;51.820;8.682;2023-02-28T06:25:52;2.13;;;0.57;;
11024;SDS011;22890;51.820;8.682;2023-02-28T06:28:19;3.23;;;1.10;;
11024;SDS011;22890;51.820;8.682;2023-02-28T06:30:46;1.87;;;1.57;;
11024;SDS011;22890;51.820;8.682;2023-02-28T06:33:13;3.13;;;0.47;;
11024;SDS011;22890;51.820;8.682;2023-02-28T06:35:43;1.80;;;0.50;;
11024;SDS011;22890;51.820;8.682;2023-02-28T06:38:10;0.83;;;0.70;;
11024;SDS011;22890;51.820;8.682;2023-02-28T06:40:38;0.50;;;0.50;;
11024;SDS011;22890;51.820;8.682;2023-02-28T06:43:05;1.13;;;0.90;;
11024;SDS011;22890;51.820;8.682;2023-02-28T06:45:33;0.70;;;0.50;;
11024;SDS011;22890;51.820;8.682;2023-02-28T06:48:00;1.87;;;0.87;;
11024;SDS011;22890;51.820;8.682;2023-02-28T06:50:27;1.33;;;0.67;;
11024;SDS011;22890;51.820;8.682;2023-02-28T06:52:55;0.93;;;0.60;;
11024;SDS011;22890;51.820;8.682;2023-02-28T06:55:22;5.57;;;0.80;;
11024;SDS011;22890;51.820;8.682;2023-02-28T06:57:50;3.13;;;1.27;;
11024;SDS011;22890;51.820;8.682;2023-02-28T07:00:17;0.87;;;0.50;;
11024;SDS011;22890;51.820;8.682;2023-02-28T07:02:44;0.73;;;0.60;;
11024;SDS011;22890;51.820;8.682;2023-02-28T07:05:11;0.73;;;0.70;;
11024;SDS011;22890;51.820;8.682;2023-02-28T07:07:39;1.43;;;0.60;;
11024;SDS011;22890;51.820;8.682;2023-02-28T07:10:10;0.90;;;0.70;;
11024;SDS011;22890;51.820;8.682;2023-02-28T07:12:37;1.03;;;0.70;;
11024;SDS011;22890;51.820;8.682;2023-02-28T07:15:04;0.80;;;0.80;;
11024;SDS011;22890;51.820;8.682;2023-02-28T07:17:32;1.60;;;1.10;;
11024;SDS011;22890;51.820;8.682;2023-02-28T07:19:59;1.23;;;0.90;;
11024;SDS011;22890;51.820;8.682;2023-02-28T07:22:25;0.90;;;0.70;;
11024;SDS011;22890;51.820;8.682;2023-02-28T07:24:54;0.97;;;0.80;;
11024;SDS011;22890;51.820;8.682;2023-02-28T07:27:21;1.50;;;0.60;;
11024;SDS011;22890;51.820;8.682;2023-02-28T07:29:51;1.80;;;1.07;;
11024;SDS011;22890;51.820;8.682;2023-02-28T07:32:19;2.33;;;0.77;;
11024;SDS011;22890;51.820;8.682;2023-02-28T07:34:46;1.30;;;0.80;;
11024;SDS011;22890;51.820;8.682;2023-02-28T07:37:14;1.03;;;0.90;;
11024;SDS011;22890;51.820;8.682;2023-02-28T07:39:41;1.33;;;0.97;;
11024;SDS011;22890;51.820;8.682;2023-02-28T07:42:08;2.60;;;0.80;;
11024;SDS011;22890;51.820;8.682;2023-02-28T07:44:38;1.97;;;0.83;;
11024;SDS011;22890;51.820;8.682;2023-02-28T07:47:07;2.00;;;0.70;;
11024;SDS011;22890;51.820;8.682;2023-02-28T07:49:35;0.80;;;0.63;;
11024;SDS011;22890;51.820;8.682;2023-02-28T07:52:03;1.03;;;0.93;;
11024;SDS011;22890;51.820;8.682;2023-02-28T07:54:31;1.00;;;0.60;;
11024;SDS011;22890;51.820;8.682;2023-02-28T07:56:58;3.00;;;0.60;;
11024;SDS011;22890;51.820;8.682;2023-02-28T07:59:25;0.80;;;0.60;;
11024;SDS011;22890;51.820;8.682;2023-02-28T08:01:52;1.87;;;0.73;;
11024;SDS011;22890;51.820;8.682;2023-02-28T08:04:19;2.60;;;0.70;;
11024;SDS011;22890;51.820;8.682;2023-02-28T08:06:46;1.40;;;0.90;;
11024;SDS011;22890;51.820;8.682;2023-02-28T08:09:13;0.90;;;0.67;;
11024;SDS011;22890;51.820;8.682;2023-02-28T08:11:40;1.03;;;1.03;;
11024;SDS011;22890;51.820;8.682;2023-02-28T08:14:07;2.50;;;1.07;;
11024;SDS011;22890;51.820;8.682;2023-02-28T08:16:34;0.97;;;0.87;;
11024;SDS011;22890;51.820;8.682;2023-02-28T08:19:02;0.83;;;0.83;;
11024;SDS011;22890;51.820;8.682;2023-02-28T08:21:28;1.63;;;1.00;;
11024;SDS011;22890;51.820;8.682;2023-02-28T08:23:56;2.40;;;1.40;;
11024;SDS011;22890;51.820;8.682;2023-02-28T08:26:23;2.53;;;1.00;;
11024;SDS011;22890;51.820;8.682;2023-02-28T08:28:50;2.17;;;1.10;;
11024;SDS011;22890;51.820;8.682;2023-02-28T08:31:17;0.90;;;0.87;;
11024;SDS011;22890;51.820;8.682;2023-02-28T08:33:44;1.87;;;1.00;;
11024;SDS011;22890;51.820;8.682;2023-02-28T08:36:11;1.63;;;1.00;;
11024;SDS011;22890;51.820;8.682;2023-02-28T08:38:38;1.33;;;1.10;;
11024;SDS011;22890;51.820;8.682;2023-02-28T08:41:07;2.63;;;1.30;;
11024;SDS011;22890;51.820;8.682;2023-02-28T08:43:35;0.90;;;0.80;;
11024;SDS011;22890;51.820;8.682;2023-02-28T08:46:03;1.33;;;0.90;;
11024;SDS011;22890;51.820;8.682;2023-02-28T08:48:31;1.17;;;0.73;;
11024;SDS011;22890;51.820;8.682;2023-02-28T08:50:59;1.17;;;1.10;;
11024;SDS011;22890;51.820;8.682;2023-02-28T08:53:33;0.80;;;0.80;;
11024;SDS011;22890;51.820;8.682;2023-02-28T08:56:01;2.23;;;1.00;;
11024;SDS011;22890;51.820;8.682;2023-02-28T08:58:30;1.27;;;1.10;;
11024;SDS011;22890;51.820;8.682;2023-02-28T09:00:57;2.30;;;0.93;;
11024;SDS011;22890;51.820;8.682;2023-02-28T09:03:24;2.53;;;1.00;;
11024;SDS011;22890;51.820;8.682;2023-02-28T09:08:20;3.70;;;1.50;;
11024;SDS011;22890;51.820;8.682;2023-02-28T09:10:47;2.20;;;1.10;;
11024;SDS011;22890;51.820;8.682;2023-02-28T09:13:14;1.40;;;0.90;;
11024;SDS011;22890;51.820;8.682;2023-02-28T09:15:41;1.23;;;0.93;;
11024;SDS011;22890;51.820;8.682;2023-02-28T09:18:08;4.10;;;0.90;;
11024;SDS011;22890;51.820;8.682;2023-02-28T09:20:37;1.53;;;0.93;;
11024;SDS011;22890;51.820;8.682;2023-02-28T09:23:09;3.27;;;1.00;;
11024;SDS011;22890;51.820;8.682;2023-02-28T09:25:36;1.10;;;0.70;;
11024;SDS011;22890;51.820;8.682;2023-02-28T09:28:04;0.70;;;0.70;;
11024;SDS011;22890;51.820;8.682;2023-02-28T09:30:30;1.63;;;0.83;;
11024;SDS011;22890;51.820;8.682;2023-02-28T09:32:57;0.77;;;0.70;;
11024;SDS011;22890;51.820;8.682;2023-02-28T09:35:24;3.37;;;1.37;;
11024;SDS011;22890;51.820;8.682;2023-02-28T09:37:52;1.83;;;1.10;;
11024;SDS011;22890;51.820;8.682;2023-02-28T09:40:23;1.30;;;1.20;;
11024;SDS011;22890;51.820;8.682;2023-02-28T09:42:52;2.83;;;1.30;;
11024;SDS011;22890;51.820;8.682;2023-02-28T09:45:39;1.90;;;1.40;;
11024;SDS011;22890;51.820;8.682;2023-02-28T09:48:15;1.97;;;1.07;;
11024;SDS011;22890;51.820;8.682;2023-02-28T09:50:48;2.13;;;1.30;;
11024;SDS011;22890;51.820;8.682;2023-02-28T09:53:22;2.17;;;1.50;;
11024;SDS011;22890;51.820;8.682;2023-02-28T10:04:42;2.73;;;1.53;;
11024;SDS011;22890;51.820;8.682;2023-02-28T10:07:55;2.40;;;1.23;;
11024;SDS011;22890;51.820;8.682;2023-02-28T10:10:20;1.40;;;1.30;;
11024;SDS011;22890;51.820;8.682;2023-02-28T10:12:53;2.20;;;1.27;;
11024;SDS011;22890;51.820;8.682;2023-02-28T10:15:24;2.20;;;1.23;;
11024;SDS011;22890;51.820;8.682;2023-02-28T10:17:54;2.13;;;1.30;;
11024;SDS011;22890;51.820;8.682;2023-02-28T10:20:35;1.77;;;1.30;;
11024;SDS011;22890;51.820;8.682;2023-02-28T10:26:16;1.30;;;1.20;;
11024;SDS011;22890;51.820;8.682;2023-02-28T10:28:42;0.90;;;0.90;;
11024;SDS011;22890;51.820;8.682;2023-02-28T10:31:11;2.23;;;1.50;;
11024;SDS011;22890;51.820;8.682;2023-02-28T10:33:43;2.97;;;2.00;;
11024;SDS011;22890;51.820;8.682;2023-02-28T10:36:13;2.90;;;1.43;;
11024;SDS011;22890;51.820;8.682;2023-02-28T10:38:43;5.67;;;1.13;;
11024;SDS011;22890;51.820;8.682;2023-02-28T10:41:13;1.83;;;1.40;;
11024;SDS011;22890;51.820;8.682;2023-02-28T10:43:43;2.50;;;1.17;;
11024;SDS011;22890;51.820;8.682;2023-02-28T10:46:14;3.40;;;1.53;;
11024;SDS011;22890;51.820;8.682;2023-02-28T10:49:02;2.53;;;1.20;;
11024;SDS011;22890;51.820;8.682;2023-02-28T10:51:38;6.33;;;1.47;;
11024;SDS011;22890;51.820;8.682;2023-02-28T10:54:14;2.83;;;2.00;;
11024;SDS011;22890;51.820;8.682;2023-02-28T10:56:45;4.13;;;1.67;;
11024;SDS011;22890;51.820;8.682;2023-02-28T10:59:25;2.73;;;1.20;;
11024;SDS011;22890;51.820;8.682;2023-02-28T11:01:54;1.47;;;1.30;;
11024;SDS011;22890;51.820;8.682;2023-02-28T11:09:37;1.77;;;1.10;;
11024;SDS011;22890;51.820;8.682;2023-02-28T11:12:07;1.80;;;0.90;;
11024;SDS011;22890;51.820;8.682;2023-02-28T11:14:49;1.57;;;1.37;;
11024;SDS011;22890;51.820;8.682;2023-02-28T11:17:20;3.00;;;1.33;;
11024;SDS011;22890;51.820;8.682;2023-02-28T11:19:51;1.50;;;1.40;;
11024;SDS011;22890;51.820;8.682;2023-02-28T11:22:23;1.03;;;0.93;;
11024;SDS011;22890;51.820;8.682;2023-02-28T11:24:55;1.73;;;1.10;;
11024;SDS011;22890;51.820;8.682;2023-02-28T11:29:52;2.43;;;1.47;;
11024;SDS011;22890;51.820;8.682;2023-02-28T11:32:20;2.87;;;1.60;;
11024;SDS011;22890;51.820;8.682;2023-02-28T11:35:00;3.10;;;1.90;;
11024;SDS011;22890;51.820;8.682;2023-02-28T11:37:37;2.07;;;1.50;;
11024;SDS011;22890;51.820;8.682;2023-02-28T11:40:14;1.50;;;1.40;;
11024;SDS011;22890;51.820;8.682;2023-02-28T11:42:49;1.20;;;1.10;;
11024;SDS011;22890;51.820;8.682;2023-02-28T11:45:43;2.00;;;1.53;;
11024;SDS011;22890;51.820;8.682;2023-02-28T11:53:59;1.83;;;1.40;;
11024;SDS011;22890;51.820;8.682;2023-02-28T11:56:52;2.23;;;1.67;;
11024;SDS011;22890;51.820;8.682;2023-02-28T11:59:35;1.30;;;1.20;;
11024;SDS011;22890;51.820;8.682;2023-02-28T12:02:20;4.10;;;1.50;;
11024;SDS011;22890;51.820;8.682;2023-02-28T12:07:37;1.83;;;1.70;;
11024;SDS011;22890;51.820;8.682;2023-02-28T12:10:22;2.73;;;1.37;;
11024;SDS011;22890;51.820;8.682;2023-02-28T12:21:51;2.00;;;1.27;;
11024;SDS011;22890;51.820;8.682;2023-02-28T12:24:39;2.47;;;1.13;;
11024;SDS011;22890;51.820;8.682;2023-02-28T12:27:13;2.20;;;1.40;;
11024;SDS011;22890;51.820;8.682;2023-02-28T12:32:12;2.33;;;1.10;;
11024;SDS011;22890;51.820;8.682;2023-02-28T12:34:49;2.53;;;1.30;;
11024;SDS011;22890;51.820;8.682;2023-02-28T12:37:21;2.00;;;1.53;;
11024;SDS011;22890;51.820;8.682;2023-02-28T12:39:59;4.23;;;1.77;;
11024;SDS011;22890;51.820;8.682;2023-02-28T12:42:32;1.70;;;1.23;;
11024;SDS011;22890;51.820;8.682;2023-02-28T12:45:18;1.50;;;1.40;;
11024;SDS011;22890;51.820;8.682;2023-02-28T12:47:49;3.10;;;1.60;;
11024;SDS011;22890;51.820;8.682;2023-02-28T12:50:22;1.90;;;1.77;;
11024;SDS011;22890;51.820;8.682;2023-02-28T12:59:10;2.67;;;1.67;;
11024;SDS011;22890;51.820;8.682;2023-02-28T13:01:25;2.53;;;1.90;;
11024;SDS011;22890;51.820;8.682;2023-02-28T13:04:20;2.03;;;1.60;;
11024;SDS011;22890;51.820;8.682;2023-02-28T13:10:04;1.50;;;1.40;;
11024;SDS011;22890;51.820;8.682;2023-02-28T13:12:34;4.50;;;2.30;;
11024;SDS011;22890;51.820;8.682;2023-02-28T13:15:08;4.40;;;1.37;;
11024;SDS011;22890;51.820;8.682;2023-02-28T13:17:50;1.60;;;1.50;;
11024;SDS011;22890;51.820;8.682;2023-02-28T13:20:20;3.33;;;1.53;;
11024;SDS011;22890;51.820;8.682;2023-02-28T13:22:52;1.50;;;1.37;;
11024;SDS011;22890;51.820;8.682;2023-02-28T13:28:00;3.23;;;1.73;;
11024;SDS011;22890;51.820;8.682;2023-02-28T13:33:28;3.20;;;1.90;;
11024;SDS011;22890;51.820;8.682;2023-02-28T13:38:54;2.13;;;1.60;;
11024;SDS011;22890;51.820;8.682;2023-02-28T13:41:40;1.77;;;1.30;;
11024;SDS011;22890;51.820;8.682;2023-02-28T13:44:12;2.10;;;1.87;;
11024;SDS011;22890;51.820;8.682;2023-02-28T13:51:49;4.00;;;2.30;;
11024;SDS011;22890;51.820;8.682;2023-02-28T13:57:00;2.03;;;1.57;;
11024;SDS011;22890;51.820;8.682;2023-02-28T14:06:17;1.70;;;1.60;;
11024;SDS011;22890;51.820;8.682;2023-02-28T14:11:32;2.87;;;1.93;;
11024;SDS011;22890;51.820;8.682;2023-02-28T14:14:00;2.10;;;1.87;;
11024;SDS011;22890;51.820;8.682;2023-02-28T14:16:39;1.97;;;1.70;;
11024;SDS011;22890;51.820;8.682;2023-02-28T14:22:00;2.10;;;1.33;;
11024;SDS011;22890;51.820;8.682;2023-02-28T14:24:41;1.33;;;1.20;;
11024;SDS011;22890;51.820;8.682;2023-02-28T14:27:44;2.70;;;2.00;;
11024;SDS011;22890;51.820;8.682;2023-02-28T14:36:33;4.37;;;2.00;;
11024;SDS011;22890;51.820;8.682;2023-02-28T14:39:16;2.53;;;1.60;;
11024;SDS011;22890;51.820;8.682;2023-02-28T14:41:46;2.90;;;1.70;;
11024;SDS011;22890;51.820;8.682;2023-02-28T14:44:15;1.87;;;1.73;;
11024;SDS011;22890;51.820;8.682;2023-02-28T14:46:43;1.90;;;1.70;;
11024;SDS011;22890;51.820;8.682;2023-02-28T14:49:13;2.73;;;1.80;;
11024;SDS011;22890;51.820;8.682;2023-02-28T14:52:01;2.50;;;1.83;;
11024;SDS011;22890;51.820;8.682;2023-02-28T14:54:40;3.00;;;1.70;;
11024;SDS011;22890;51.820;8.682;2023-02-28T14:57:20;2.10;;;1.57;;
11024;SDS011;22890;51.820;8.682;2023-02-28T15:02:38;3.67;;;2.17;;
11024;SDS011;22890;51.820;8.682;2023-02-28T15:07:38;2.47;;;1.80;;
11024;SDS011;22890;51.820;8.682;2023-02-28T15:10:06;2.13;;;1.93;;
11024;SDS011;22890;51.820;8.682;2023-02-28T15:12:39;2.80;;;2.00;;
11024;SDS011;22890;51.820;8.682;2023-02-28T15:15:14;2.40;;;1.80;;
11024;SDS011;22890;51.820;8.682;2023-02-28T15:17:43;2.17;;;1.97;;
11024;SDS011;22890;51.820;8.682;2023-02-28T15:20:13;2.93;;;1.87;;
11024;SDS011;22890;51.820;8.682;2023-02-28T15:22:42;2.73;;;1.97;;
11024;SDS011;22890;51.820;8.682;2023-02-28T15:25:11;2.73;;;1.93;;
11024;SDS011;22890;51.820;8.682;2023-02-28T15:27:44;2.00;;;1.73;;
11024;SDS011;22890;51.820;8.682;2023-02-28T15:30:20;2.90;;;1.77;;
11024;SDS011;22890;51.820;8.682;2023-02-28T15:35:43;2.57;;;1.83;;
11024;SDS011;22890;51.820;8.682;2023-02-28T15:40:54;2.20;;;1.87;;
11024;SDS011;22890;51.820;8.682;2023-02-28T15:43:24;1.90;;;1.67;;
11024;SDS011;22890;51.820;8.682;2023-02-28T15:45:57;2.83;;;1.70;;
11024;SDS011;22890;51.820;8.682;2023-02-28T15:51:05;2.43;;;1.50;;
11024;SDS011;22890;51.820;8.682;2023-02-28T15:56:31;2.87;;;1.97;;
11024;SDS011;22890;51.820;8.682;2023-02-28T15:59:00;1.97;;;1.53;;
11024;SDS011;22890;51.820;8.682;2023-02-28T16:01:30;2.53;;;1.80;;
11024;SDS011;22890;51.820;8.682;2023-02-28T16:04:05;3.40;;;1.80;;
11024;SDS011;22890;51.820;8.682;2023-02-28T16:06:39;2.23;;;1.90;;
11024;SDS011;22890;51.820;8.682;2023-02-28T16:09:09;2.40;;;1.57;;
11024;SDS011;22890;51.820;8.682;2023-02-28T16:11:39;2.10;;;1.90;;
11024;SDS011;22890;51.820;8.682;2023-02-28T16:14:11;3.37;;;1.83;;
11024;SDS011;22890;51.820;8.682;2023-02-28T16:16:42;2.83;;;2.00;;
11024;SDS011;22890;51.820;8.682;2023-02-28T16:19:10;3.27;;;1.80;;
11024;SDS011;22890;51.820;8.682;2023-02-28T16:21:37;2.30;;;1.67;;
11024;SDS011;22890;51.820;8.682;2023-02-28T16:24:04;2.53;;;1.70;;
11024;SDS011;22890;51.820;8.682;2023-02-28T16:26:31;3.90;;;1.83;;
11024;SDS011;22890;51.820;8.682;2023-02-28T16:29:01;1.97;;;1.57;;
11024;SDS011;22890;51.820;8.682;2023-02-28T16:31:28;2.67;;;2.07;;
11024;SDS011;22890;51.820;8.682;2023-02-28T16:33:56;2.70;;;1.80;;
11024;SDS011;22890;51.820;8.682;2023-02-28T16:36:24;2.07;;;1.73;;
11024;SDS011;22890;51.820;8.682;2023-02-28T16:38:51;1.97;;;1.87;;
11024;SDS011;22890;51.820;8.682;2023-02-28T16:41:19;2.20;;;1.83;;
11024;SDS011;22890;51.820;8.682;2023-02-28T16:43:49;2.80;;;1.80;;
11024;SDS011;22890;51.820;8.682;2023-02-28T16:46:19;2.27;;;2.00;;
11024;SDS011;22890;51.820;8.682;2023-02-28T16:48:47;5.73;;;1.57;;
11024;SDS011;22890;51.820;8.682;2023-02-28T16:51:17;6.10;;;2.13;;
11024;SDS011;22890;51.820;8.682;2023-02-28T16:53:45;4.80;;;2.30;;
11024;SDS011;22890;51.820;8.682;2023-02-28T16:56:14;3.10;;;1.77;;
11024;SDS011;22890;51.820;8.682;2023-02-28T16:58:46;2.00;;;1.80;;
11024;SDS011;22890;51.820;8.682;2023-02-28T17:01:14;4.13;;;1.90;;
11024;SDS011;22890;51.820;8.682;2023-02-28T17:03:41;2.23;;;2.03;;
11024;SDS011;22890;51.820;8.682;2023-02-28T17:06:14;1.63;;;1.37;;
11024;SDS011;22890;51.820;8.682;2023-02-28T17:08:50;10.23;;;1.93;;
11024;SDS011;22890;51.820;8.682;2023-02-28T17:11:18;2.13;;;1.87;;
11024;SDS011;22890;51.820;8.682;2023-02-28T17:13:45;2.53;;;2.33;;
11024;SDS011;22890;51.820;8.682;2023-02-28T17:18:46;2.13;;;1.67;;
11024;SDS011;22890;51.820;8.682;2023-02-28T17:21:14;3.10;;;1.80;;
11024;SDS011;22890;51.820;8.682;2023-02-28T17:23:42;7.83;;;2.17;;
11024;SDS011;22890;51.820;8.682;2023-02-28T17:26:11;2.63;;;1.90;;
11024;SDS011;22890;51.820;8.682;2023-02-28T17:28:46;6.63;;;5.10;;
11024;SDS011;22890;51.820;8.682;2023-02-28T17:31:14;4.93;;;4.43;;
11024;SDS011;22890;51.820;8.682;2023-02-28T17:33:41;3.03;;;2.50;;